createdAt,value
2022-10-24T00:00:32.261Z,100222.31
2022-10-24T00:03:00.248Z,100217.75
2022-10-24T00:05:27.660Z,100217.22
2022-10-24T00:07:55.160Z,100221.25
2022-10-24T00:10:22.839Z,100223.91
2022-10-24T00:12:50.217Z,100224.22
2022-10-24T00:15:17.574Z,100216.59
2022-10-24T00:17:45.188Z,100211.22
2022-10-24T00:20:12.901Z,100216.75
2022-10-24T00:22:40.255Z,100218.44
2022-10-24T00:25:08.149Z,100216.03
2022-10-24T00:27:36.308Z,100218.81
2022-10-24T00:30:05.484Z,100222.16
2022-10-24T00:32:33.189Z,100214.03
2022-10-24T00:35:00.540Z,100206.87
2022-10-24T00:37:27.878Z,100207.84
2022-10-24T00:39:55.491Z,100204.53
2022-10-24T00:42:23.093Z,100194.88
2022-10-24T00:44:53.093Z,100197.94
2022-10-24T00:47:24.786Z,100199.19
2022-10-24T00:50:12.358Z,100198.38
2022-10-24T00:52:45.391Z,100198.47
2022-10-24T00:55:13.828Z,100201.25
2022-10-24T00:57:51.664Z,100198.19
2022-10-24T01:00:22.225Z,100190.53
2022-10-24T01:02:49.929Z,100195.03
2022-10-24T01:05:19.277Z,100196.13
2022-10-24T01:07:52.525Z,100193.59
2022-10-24T01:10:40.784Z,100201.75
2022-10-24T01:13:26.708Z,100183.97
2022-10-24T01:16:02.176Z,100177.97
2022-10-24T01:18:34.622Z,100191.38
2022-10-24T01:21:25.097Z,100181.25
2022-10-24T01:24:32.583Z,100188.56
2022-10-24T01:27:30.358Z,100195.38
2022-10-24T01:30:10.568Z,100199.19
2022-10-24T01:32:46.003Z,100205.66
2022-10-24T01:35:37.064Z,100209.03
2022-10-24T01:38:19.659Z,100205.16
2022-10-24T01:40:52.538Z,100199.25
2022-10-24T01:43:27.744Z,100186.97
2022-10-24T01:46:08.541Z,100193.94
2022-10-24T01:48:40.525Z,100184.22
2022-10-24T01:51:08.300Z,100190.41
2022-10-24T01:53:36.304Z,100191.44
2022-10-24T01:56:03.868Z,100177.75
2022-10-24T01:58:31.220Z,100181.72
2022-10-24T02:01:00.612Z,100179.56
2022-10-24T02:03:39.534Z,100184.22
2022-10-24T02:06:14.023Z,100165.75
2022-10-24T02:08:44.413Z,100164.00
2022-10-24T02:11:12.590Z,100160.78
2022-10-24T02:13:45.667Z,100155.16
2022-10-24T02:16:17.002Z,100160.13
2022-10-24T02:18:44.570Z,100148.44
2022-10-24T02:21:28.205Z,100151.00
2022-10-24T02:23:58.775Z,100138.59
2022-10-24T02:26:32.489Z,100149.31
2022-10-24T02:29:03.434Z,100147.56
2022-10-24T02:31:40.588Z,100146.94
2022-10-24T02:34:09.802Z,100159.78
2022-10-24T02:36:37.902Z,100163.03
2022-10-24T02:39:07.035Z,100153.50
2022-10-24T02:41:36.845Z,100150.84
2022-10-24T02:44:04.690Z,100151.31
2022-10-24T02:46:32.465Z,100156.41
2022-10-24T02:49:01.563Z,100157.62
2022-10-24T02:51:32.188Z,100161.12
2022-10-24T02:54:00.852Z,100171.91
2022-10-24T02:56:28.655Z,100172.09
2022-10-24T02:58:56.079Z,100159.59
2022-10-24T03:01:23.836Z,100153.72
2022-10-24T03:03:51.280Z,100158.78
2022-10-24T03:06:18.659Z,100133.75
2022-10-24T03:08:46.281Z,100137.62
2022-10-24T03:11:13.627Z,100138.81
2022-10-24T03:13:40.962Z,100136.50
2022-10-24T03:16:11.608Z,100119.31
2022-10-24T03:18:41.418Z,100123.25
2022-10-24T03:21:09.011Z,100124.44
2022-10-24T03:23:36.309Z,100121.87
2022-10-24T03:26:03.635Z,100116.97
2022-10-24T03:28:31.248Z,100124.13
2022-10-24T03:30:58.576Z,100128.91
2022-10-24T03:33:25.924Z,100130.69
2022-10-24T03:35:54.233Z,100134.47
2022-10-24T03:38:23.134Z,100138.44
2022-10-24T03:40:51.053Z,100136.19
2022-10-24T03:43:18.904Z,100138.81
2022-10-24T03:45:46.653Z,100138.47
2022-10-24T03:48:14.179Z,100136.41
2022-10-24T03:50:41.876Z,100137.88
2022-10-24T03:53:09.213Z,100139.25
2022-10-24T03:55:36.619Z,100145.50
2022-10-24T03:58:04.368Z,100142.25
2022-10-24T04:00:34.668Z,100144.34
2022-10-24T04:03:02.340Z,100152.53
2022-10-24T04:05:29.737Z,100152.47
2022-10-24T04:07:57.125Z,100158.78
2022-10-24T04:10:24.690Z,100152.97
2022-10-24T04:12:52.036Z,100158.09
2022-10-24T04:15:19.436Z,100164.09
2022-10-24T04:17:47.341Z,100151.44
2022-10-24T04:20:19.445Z,100144.97
2022-10-24T04:22:47.679Z,100148.06
2022-10-24T04:25:16.324Z,100143.88
2022-10-24T04:27:43.973Z,100133.81
2022-10-24T04:30:16.558Z,100139.41
2022-10-24T04:32:44.902Z,100140.16
2022-10-24T04:35:13.905Z,100136.19
2022-10-24T04:37:41.314Z,100133.03
2022-10-24T04:40:09.517Z,100142.13
2022-10-24T04:42:37.263Z,100133.22
2022-10-24T04:45:05.129Z,100141.87
2022-10-24T04:47:32.702Z,100131.63
2022-10-24T04:50:00.293Z,100117.06
2022-10-24T04:52:27.626Z,100117.81
2022-10-24T04:54:55.024Z,100115.28
2022-10-24T04:57:22.631Z,100110.50
2022-10-24T04:59:50.103Z,100114.69
2022-10-24T05:02:17.549Z,100120.12
2022-10-24T05:04:45.195Z,100112.41
2022-10-24T05:07:12.518Z,100117.41
2022-10-24T05:09:39.856Z,100119.22
2022-10-24T05:12:07.568Z,100142.06
2022-10-24T05:14:35.003Z,100153.72
2022-10-24T05:17:02.440Z,100146.63
2022-10-24T05:19:30.222Z,100146.59
2022-10-24T05:21:57.561Z,100155.13
2022-10-24T05:24:25.047Z,100167.75
2022-10-24T05:26:52.654Z,100160.19
2022-10-24T05:29:20.002Z,100162.25
2022-10-24T05:31:47.461Z,100169.63
2022-10-24T05:34:15.117Z,100162.00
2022-10-24T05:36:42.497Z,100168.63
2022-10-24T05:39:09.892Z,100150.34
2022-10-24T05:41:37.548Z,100157.59
2022-10-24T05:44:04.990Z,100170.22
2022-10-24T05:46:32.602Z,100173.88
2022-10-24T05:49:00.375Z,100186.59
2022-10-24T05:51:27.733Z,100191.66
2022-10-24T05:53:57.454Z,100200.34
2022-10-24T05:56:25.766Z,100205.50
2022-10-24T05:58:53.172Z,100206.97
2022-10-24T06:01:20.774Z,100197.88
2022-10-24T06:03:48.449Z,100194.94
2022-10-24T06:06:15.897Z,100191.41
2022-10-24T06:08:43.237Z,100201.56
2022-10-24T06:11:11.677Z,100191.97
2022-10-24T06:13:39.538Z,100192.72
2022-10-24T06:16:07.360Z,100179.97
2022-10-24T06:18:36.164Z,100176.91
2022-10-24T06:21:05.494Z,100177.56
2022-10-24T06:23:33.231Z,100174.34
2022-10-24T06:26:00.868Z,100170.00
2022-10-24T06:28:28.295Z,100180.41
2022-10-24T06:30:55.678Z,100171.84
2022-10-24T06:33:23.323Z,100175.81
2022-10-24T06:35:50.697Z,100168.44
2022-10-24T06:38:18.044Z,100162.13
2022-10-24T06:40:45.682Z,100172.00
2022-10-24T06:43:13.043Z,100172.66
2022-10-24T06:45:40.389Z,100162.94
2022-10-24T06:48:08.024Z,100162.59
2022-10-24T06:50:36.982Z,100161.25
2022-10-24T06:53:04.332Z,100164.62
2022-10-24T06:55:31.939Z,100167.25
2022-10-24T06:57:59.629Z,100174.16
2022-10-24T07:02:59.681Z,100177.75
2022-10-24T07:05:27.166Z,100165.53
2022-10-24T07:07:54.546Z,100182.87
2022-10-24T07:10:22.251Z,100188.12
2022-10-24T07:12:49.619Z,100206.28
2022-10-24T07:15:17.050Z,100209.03
2022-10-24T07:17:45.327Z,100221.94
2022-10-24T07:20:13.300Z,100222.88
2022-10-24T07:22:41.888Z,100215.38
2022-10-24T07:25:09.752Z,100206.37
2022-10-24T07:27:37.248Z,100214.72
2022-10-24T07:30:06.125Z,100222.66
2022-10-24T07:32:34.096Z,100212.84
2022-10-24T07:35:01.484Z,100207.22
2022-10-24T07:37:28.835Z,100199.97
2022-10-24T07:39:56.481Z,100208.12
2022-10-24T07:42:23.791Z,100214.88
2022-10-24T07:44:51.263Z,100225.81
2022-10-24T07:47:18.901Z,100220.50
2022-10-24T07:49:46.244Z,100225.09
2022-10-24T07:52:13.609Z,100222.38
2022-10-24T07:54:41.252Z,100230.69
2022-10-24T07:57:08.623Z,100226.84
2022-10-24T07:59:43.193Z,100227.84
2022-10-24T08:02:14.750Z,100224.47
2022-10-24T08:04:42.464Z,100230.22
2022-10-24T08:07:14.326Z,100231.53
2022-10-24T08:09:45.019Z,100238.13
2022-10-24T08:12:12.662Z,100227.47
2022-10-24T08:14:41.167Z,100217.22
2022-10-24T08:17:09.132Z,100212.91
2022-10-24T08:19:43.787Z,100210.41
2022-10-24T08:22:12.461Z,100210.63
2022-10-24T08:24:39.829Z,100205.59
2022-10-24T08:27:07.249Z,100209.53
2022-10-24T08:29:35.556Z,100208.22
2022-10-24T08:32:02.977Z,100206.59
2022-10-24T08:34:30.419Z,100202.16
2022-10-24T08:36:58.080Z,100202.28
2022-10-24T08:39:27.027Z,100199.28
2022-10-24T08:41:59.507Z,100205.12
2022-10-24T08:44:40.418Z,100204.47
2022-10-24T08:47:29.689Z,100192.69
2022-10-24T08:50:09.384Z,100187.69
2022-10-24T08:52:49.871Z,100195.50
2022-10-24T08:55:48.094Z,100178.75
2022-10-24T08:58:31.361Z,100178.91
2022-10-24T09:01:01.140Z,100174.88
2022-10-24T09:03:55.074Z,100191.66
2022-10-24T09:06:29.482Z,100191.91
2022-10-24T09:08:58.517Z,100181.62
2022-10-24T09:11:41.698Z,100187.56
2022-10-24T09:14:14.414Z,100184.06
2022-10-24T09:16:44.441Z,100177.41
2022-10-24T09:19:15.894Z,100188.00
2022-10-24T09:21:43.913Z,100179.09
2022-10-24T09:24:23.112Z,100191.88
2022-10-24T09:26:50.776Z,100196.00
2022-10-24T09:29:18.182Z,100196.56
2022-10-24T09:31:49.382Z,100200.91
2022-10-24T09:34:17.458Z,100206.75
2022-10-24T09:36:44.821Z,100205.91
2022-10-24T09:39:32.804Z,100210.09
2022-10-24T09:42:01.759Z,100221.25
2022-10-24T09:44:31.513Z,100221.25
2022-10-24T09:46:59.088Z,100223.87
2022-10-24T09:49:33.483Z,100224.59
2022-10-24T09:52:16.105Z,100228.53
2022-10-24T09:54:44.806Z,100225.62
2022-10-24T09:57:12.083Z,100215.78
2022-10-24T10:00:03.489Z,100210.72
2022-10-24T10:02:37.614Z,100221.59
2022-10-24T10:05:05.226Z,100215.81
2022-10-24T10:07:38.776Z,100210.25
2022-10-24T10:10:18.619Z,100213.34
2022-10-24T10:12:55.280Z,100210.44
2022-10-24T10:15:31.077Z,100205.28
2022-10-24T10:18:03.934Z,100197.84
2022-10-24T10:20:37.132Z,100201.22
2022-10-24T10:23:17.489Z,100200.66
2022-10-24T10:25:45.123Z,100188.56
2022-10-24T10:28:21.181Z,100200.06
2022-10-24T10:30:55.261Z,100188.91
2022-10-24T10:33:53.904Z,100194.94
2022-10-24T10:36:25.380Z,100195.22
2022-10-24T10:39:30.381Z,100193.47
2022-10-24T10:42:03.688Z,100205.66
2022-10-24T10:44:40.096Z,100187.91
2022-10-24T10:47:38.915Z,100180.72
2022-10-24T10:50:39.744Z,100175.59
2022-10-24T10:53:31.741Z,100178.19
2022-10-24T10:56:21.182Z,100166.16
2022-10-24T10:59:04.167Z,100170.91
2022-10-24T11:01:53.320Z,100171.28
2022-10-24T11:04:42.638Z,100165.47
2022-10-24T11:07:23.344Z,100165.22
2022-10-24T11:09:52.894Z,100164.38
2022-10-24T11:12:26.636Z,100157.72
2022-10-24T11:15:09.773Z,100163.69
2022-10-24T11:17:59.335Z,100161.06
2022-10-24T11:20:29.825Z,100154.38
2022-10-24T11:23:02.300Z,100166.69
2022-10-24T11:25:32.015Z,100172.75
2022-10-24T11:28:07.723Z,100168.00
2022-10-24T11:30:42.633Z,100158.75
2022-10-24T11:33:12.084Z,100154.16
2022-10-24T11:35:44.803Z,100157.62
2022-10-24T11:38:24.304Z,100159.00
2022-10-24T11:40:58.886Z,100162.63
2022-10-24T11:43:37.901Z,100154.94
2022-10-24T11:46:12.620Z,100162.75
2022-10-24T11:48:53.322Z,100154.38
2022-10-24T11:51:36.048Z,100151.78
2022-10-24T11:54:05.599Z,100154.19
2022-10-24T11:56:50.442Z,100154.88
2022-10-24T11:59:24.470Z,100140.19
2022-10-24T12:01:54.954Z,100142.88
2022-10-24T12:04:37.471Z,100158.53
2022-10-24T12:07:13.549Z,100165.34
2022-10-24T12:10:02.118Z,100157.78
2022-10-24T12:12:56.879Z,100154.09
2022-10-24T12:15:35.479Z,100148.47
2022-10-24T12:18:12.176Z,100141.91
2022-10-24T12:20:40.466Z,100141.06
2022-10-24T12:23:08.191Z,100122.06
2022-10-24T12:25:37.239Z,100110.63
2022-10-24T12:28:08.721Z,100128.47
2022-10-24T12:30:36.782Z,100123.69
2022-10-24T12:33:08.735Z,100125.81
2022-10-24T12:35:44.522Z,100127.53
2022-10-24T12:38:16.316Z,100140.03
2022-10-24T12:41:05.855Z,100138.81
2022-10-24T12:43:44.350Z,100128.94
2022-10-24T12:46:18.811Z,100125.72
2022-10-24T12:48:59.212Z,100115.06
2022-10-24T12:51:28.889Z,100115.03
2022-10-24T12:54:11.024Z,100114.34
2022-10-24T12:56:50.540Z,100098.63
2022-10-24T12:59:22.634Z,100099.22
2022-10-24T13:02:11.716Z,100086.59
2022-10-24T13:04:42.137Z,100098.03
2022-10-24T13:07:18.083Z,100090.22
2022-10-24T13:09:55.617Z,100094.22
2022-10-24T13:12:56.902Z,100099.06
2022-10-24T13:15:42.146Z,100090.63
2022-10-24T13:18:21.830Z,100086.94
2022-10-24T13:20:50.367Z,100080.56
2022-10-24T13:23:24.969Z,100074.50
2022-10-24T13:25:57.289Z,100067.66
2022-10-24T13:28:24.865Z,100066.66
2022-10-24T13:30:58.600Z,100084.47
2022-10-24T13:33:29.003Z,100083.22
2022-10-24T13:36:09.692Z,100074.53
2022-10-24T13:38:41.940Z,100079.53
2022-10-24T13:41:11.386Z,100070.50
2022-10-24T13:43:43.414Z,100070.91
2022-10-24T13:46:13.243Z,100080.03
2022-10-24T13:48:46.668Z,100080.16
2022-10-24T13:51:47.588Z,100082.81
2022-10-24T13:54:21.299Z,100076.38
2022-10-24T13:56:48.853Z,100083.78
2022-10-24T13:59:31.783Z,100076.47
2022-10-24T14:02:02.871Z,100074.63
2022-10-24T14:04:30.893Z,100084.06
2022-10-24T14:07:03.862Z,100091.19
2022-10-24T14:09:39.363Z,100076.19
2022-10-24T14:12:06.789Z,100077.47
2022-10-24T14:14:40.044Z,100059.41
2022-10-24T14:17:31.507Z,100057.31
2022-10-24T14:20:13.382Z,100062.62
2022-10-24T14:22:41.264Z,100064.59
2022-10-24T14:25:30.087Z,100070.03
2022-10-24T14:28:03.880Z,100052.25
2022-10-24T14:30:35.029Z,100062.12
2022-10-24T14:33:12.984Z,100072.72
2022-10-24T14:35:41.145Z,100072.72
2022-10-24T14:38:13.723Z,100064.41
2022-10-24T14:40:43.242Z,100062.38
2022-10-24T14:43:24.423Z,100066.22
2022-10-24T14:46:13.037Z,100062.69
2022-10-24T14:48:46.142Z,100071.63
2022-10-24T14:51:16.683Z,100068.00
2022-10-24T14:53:44.974Z,100060.72
2022-10-24T14:56:25.084Z,100061.06
2022-10-24T14:58:54.719Z,100068.88
2022-10-24T15:01:23.628Z,100072.38
2022-10-24T15:04:01.107Z,100070.69
2022-10-24T15:06:37.557Z,100070.00
2022-10-24T15:09:10.987Z,100071.16
2022-10-24T15:11:41.221Z,100073.75
2022-10-24T15:14:36.777Z,100060.59
2022-10-24T15:17:31.647Z,100068.50
2022-10-24T15:20:01.739Z,100070.47
2022-10-24T15:22:32.327Z,100058.81
2022-10-24T15:25:02.134Z,100054.37
2022-10-24T15:27:37.338Z,100045.75
2022-10-24T15:30:20.152Z,100040.78
2022-10-24T15:32:49.229Z,100049.44
2022-10-24T15:35:18.032Z,100049.16
2022-10-24T15:37:56.706Z,100046.25
2022-10-24T15:40:30.448Z,100050.25
2022-10-24T15:42:57.823Z,100053.78
2022-10-24T15:45:25.546Z,100051.44
2022-10-24T15:47:53.144Z,100045.09
2022-10-24T15:52:57.366Z,100047.41
2022-10-24T15:55:27.066Z,100047.41
2022-10-24T15:57:54.851Z,100040.19
2022-10-24T16:00:22.991Z,100037.72
2022-10-24T16:02:53.308Z,100035.12
2022-10-24T16:05:24.153Z,100032.19
2022-10-24T16:07:52.240Z,100039.22
2022-10-24T16:10:21.313Z,100050.09
2022-10-24T16:12:49.879Z,100055.16
2022-10-24T16:15:21.500Z,100060.22
2022-10-24T16:17:49.256Z,100056.00
2022-10-24T16:20:17.145Z,100032.66
2022-10-24T16:22:45.099Z,100035.22
2022-10-24T16:25:24.172Z,100026.66
2022-10-24T16:27:52.352Z,100042.41
2022-10-24T16:30:23.306Z,100050.97
2022-10-24T16:32:50.966Z,100045.25
2022-10-24T16:35:24.853Z,100050.25
2022-10-24T16:37:53.470Z,100044.09
2022-10-24T16:40:22.130Z,100036.38
2022-10-24T16:42:50.932Z,100030.28
2022-10-24T16:45:19.203Z,100034.00
2022-10-24T16:47:48.014Z,100032.38
2022-10-24T16:50:17.563Z,100030.22
2022-10-24T16:52:45.283Z,100037.16
2022-10-24T16:55:13.666Z,100043.31
2022-10-24T16:57:41.422Z,100043.53
2022-10-24T17:00:14.575Z,100048.50
2022-10-24T17:02:47.121Z,100046.84
2022-10-24T17:05:15.365Z,100048.53
2022-10-24T17:07:43.186Z,100040.53
2022-10-24T17:10:12.687Z,100045.13
2022-10-24T17:12:42.430Z,100040.59
2022-10-24T17:15:10.561Z,100049.97
2022-10-24T17:17:40.673Z,100043.44
2022-10-24T17:20:09.928Z,100045.00
2022-10-24T17:22:38.798Z,100051.00
2022-10-24T17:25:07.685Z,100040.78
2022-10-24T17:27:35.569Z,100038.03
2022-10-24T17:30:04.002Z,100043.87
2022-10-24T17:32:33.159Z,100045.38
2022-10-24T17:35:01.087Z,100048.19
2022-10-24T17:37:58.672Z,100045.19
2022-10-24T17:40:28.977Z,100041.25
2022-10-24T17:42:57.612Z,100029.34
2022-10-24T17:45:26.335Z,100035.03
2022-10-24T17:47:54.234Z,100024.53
2022-10-24T17:50:22.292Z,100030.59
2022-10-24T17:52:51.660Z,100032.91
2022-10-24T17:55:44.972Z,100032.06
2022-10-24T17:58:13.745Z,100041.31
2022-10-24T18:00:41.726Z,100046.75
2022-10-24T18:03:09.898Z,100030.19
2022-10-24T18:05:38.772Z,100032.38
2022-10-24T18:08:08.776Z,100044.81
2022-10-24T18:10:39.154Z,100040.81
2022-10-24T18:13:07.724Z,100036.50
2022-10-24T18:15:36.744Z,100034.00
2022-10-24T18:18:05.721Z,100045.25
2022-10-24T18:20:33.257Z,100036.28
2022-10-24T18:23:01.373Z,100034.63
2022-10-24T18:25:29.583Z,100025.06
2022-10-24T18:27:57.429Z,100027.34
2022-10-24T18:30:25.387Z,100029.09
2022-10-24T18:32:53.574Z,100031.72
2022-10-24T18:35:22.449Z,100035.47
2022-10-24T18:37:50.585Z,100030.41
2022-10-24T18:40:18.522Z,100026.59
2022-10-24T18:42:52.087Z,100039.16
2022-10-24T18:45:23.543Z,100036.25
2022-10-24T18:47:52.032Z,100029.09
2022-10-24T18:50:22.883Z,100025.94
2022-10-24T18:53:16.795Z,100021.34
2022-10-24T18:55:47.286Z,100014.75
2022-10-24T18:58:19.875Z,99998.28
2022-10-24T19:00:48.291Z,99989.50
2022-10-24T19:03:31.278Z,99990.53
2022-10-24T19:06:04.317Z,99992.47
2022-10-24T19:08:32.224Z,100002.25
2022-10-24T19:11:00.555Z,99996.25
2022-10-24T19:13:28.447Z,99996.44
2022-10-24T19:16:04.424Z,100010.22
2022-10-24T19:18:34.582Z,100010.47
2022-10-24T19:21:04.799Z,100005.66
2022-10-24T19:23:32.542Z,100004.53
2022-10-24T19:26:00.301Z,100002.03
2022-10-24T19:28:28.096Z,100007.56
2022-10-24T19:30:55.793Z,100005.28
2022-10-24T19:33:41.770Z,99995.88
2022-10-24T19:36:11.537Z,99991.50
2022-10-24T19:38:41.496Z,99989.81
2022-10-24T19:41:11.752Z,99997.53
2022-10-24T19:43:39.694Z,99995.50
2022-10-24T19:46:19.407Z,99990.47
2022-10-24T19:48:49.631Z,99982.69
2022-10-24T19:51:18.657Z,99988.75
2022-10-24T19:53:47.085Z,99989.62
2022-10-24T19:56:23.887Z,99995.25
2022-10-24T19:58:54.159Z,99980.69
2022-10-24T20:01:36.391Z,99979.56
2022-10-24T20:04:05.010Z,99950.41
2022-10-24T20:06:33.104Z,99942.34
2022-10-24T20:09:00.769Z,99945.56
2022-10-24T20:11:28.768Z,99950.47
2022-10-24T20:13:57.622Z,99949.00
2022-10-24T20:16:25.480Z,99956.22
2022-10-24T20:18:53.553Z,99964.84
2022-10-24T20:21:21.178Z,99969.13
2022-10-24T20:23:49.351Z,99966.16
2022-10-24T20:26:21.684Z,99959.03
2022-10-24T20:28:51.017Z,99958.75
2022-10-24T20:31:25.011Z,99962.72
2022-10-24T20:33:53.019Z,99965.34
2022-10-24T20:36:23.624Z,99961.31
2022-10-24T20:38:50.985Z,99962.91
2022-10-24T20:41:18.783Z,99960.97
2022-10-24T20:43:46.962Z,99964.34
2022-10-24T20:46:14.747Z,99959.38
2022-10-24T20:48:42.156Z,99965.19
2022-10-24T20:51:15.390Z,99964.59
2022-10-24T20:53:43.160Z,99972.44
2022-10-24T20:56:16.544Z,99973.59
2022-10-24T20:58:45.000Z,99976.75
2022-10-24T21:01:21.193Z,99971.75
2022-10-24T21:03:49.843Z,99981.66
2022-10-24T21:06:29.735Z,99982.06
2022-10-24T21:09:00.485Z,99979.50
2022-10-24T21:11:29.831Z,99984.88
2022-10-24T21:14:00.496Z,99982.75
2022-10-24T21:16:28.774Z,99982.25
2022-10-24T21:18:57.862Z,99977.34
2022-10-24T21:21:25.843Z,99976.34
2022-10-24T21:23:55.455Z,99988.25
2022-10-24T21:26:23.291Z,99991.34
2022-10-24T21:28:59.405Z,99986.37
2022-10-24T21:31:36.696Z,99988.94
2022-10-24T21:36:36.603Z,99996.44
2022-10-24T21:39:03.962Z,99990.78
2022-10-24T21:41:31.283Z,99999.22
2022-10-24T21:43:58.967Z,99999.34
2022-10-24T21:46:29.151Z,100010.41
2022-10-24T21:48:57.265Z,100015.53
2022-10-24T21:51:30.321Z,100025.72
2022-10-24T21:54:00.233Z,100021.09
2022-10-24T21:56:30.248Z,100023.41
2022-10-24T21:58:59.904Z,100030.75
2022-10-24T22:01:37.411Z,100029.59
2022-10-24T22:04:06.544Z,100023.16
2022-10-24T22:06:34.945Z,100011.75
2022-10-24T22:09:03.462Z,100011.34
2022-10-24T22:11:32.311Z,100013.81
2022-10-24T22:14:00.143Z,99998.41
2022-10-24T22:16:29.574Z,99999.00
2022-10-24T22:19:02.604Z,100004.38
2022-10-24T22:21:33.926Z,100007.72
2022-10-24T22:26:32.763Z,100002.97
2022-10-24T22:29:00.385Z,100004.44
2022-10-24T22:31:29.239Z,100001.06
2022-10-24T22:33:57.515Z,100002.63
2022-10-24T22:36:39.781Z,100001.22
2022-10-24T22:39:21.906Z,100005.56
2022-10-24T22:41:49.799Z,100008.19
2022-10-24T22:44:20.637Z,100007.81
2022-10-24T22:47:00.207Z,100003.41
2022-10-24T22:49:36.711Z,100009.91
2022-10-24T22:52:04.374Z,100007.16
2022-10-24T22:54:35.602Z,100000.34
2022-10-24T22:57:04.468Z,100003.69
2022-10-24T22:59:32.891Z,99999.41
2022-10-24T23:02:00.358Z,100000.34
2022-10-24T23:04:45.942Z,100007.13
2022-10-24T23:07:39.686Z,99993.56
2022-10-24T23:10:10.633Z,99983.94
2022-10-24T23:12:38.612Z,99976.31
2022-10-24T23:15:06.712Z,99972.72
2022-10-24T23:17:34.412Z,99969.16
2022-10-24T23:20:02.392Z,99977.84
2022-10-24T23:22:33.279Z,99980.25
2022-10-24T23:25:01.428Z,99980.56
2022-10-24T23:27:31.772Z,99964.97
2022-10-24T23:29:59.375Z,99959.38
2022-10-24T23:32:29.653Z,99955.00
2022-10-24T23:34:58.327Z,99936.47
2022-10-24T23:37:31.922Z,99942.84
2022-10-24T23:40:01.976Z,99946.56
2022-10-24T23:42:29.634Z,99943.22
2022-10-24T23:44:57.193Z,99950.81
2022-10-24T23:47:42.968Z,99951.19
2022-10-24T23:50:31.529Z,99938.22
2022-10-24T23:53:12.533Z,99943.53
2022-10-24T23:55:40.112Z,99951.69
2022-10-24T23:58:11.055Z,99959.41
